sensor_id;sensor_type;location;lat;lon;timestamp;temperature;humidity
18335;DHT22;9293;49.524;10.964;2022-07-21T00:00:26;24.40;99.90
18335;DHT22;9293;49.524;10.964;2022-07-21T00:02:54;24.30;99.90
18335;DHT22;9293;49.524;10.964;2022-07-21T00:05:23;24.30;99.90
18335;DHT22;9293;49.524;10.964;2022-07-21T00:07:51;24.30;99.90
18335;DHT22;9293;49.524;10.964;2022-07-21T00:10:21;24.20;99.90
18335;DHT22;9293;49.524;10.964;2022-07-21T00:12:49;24.10;99.90
18335;DHT22;9293;49.524;10.964;2022-07-21T00:15:18;23.90;99.90
18335;DHT22;9293;49.524;10.964;2022-07-21T00:17:46;23.90;99.90
18335;DHT22;9293;49.524;10.964;2022-07-21T00:20:14;24.00;99.90
18335;DHT22;9293;49.524;10.964;2022-07-21T00:22:43;23.90;99.90
18335;DHT22;9293;49.524;10.964;2022-07-21T00:25:12;24.00;99.90
18335;DHT22;9293;49.524;10.964;2022-07-21T00:27:42;24.00;99.90
18335;DHT22;9293;49.524;10.964;2022-07-21T00:30:11;24.10;99.90
18335;DHT22;9293;49.524;10.964;2022-07-21T00:32:39;24.10;99.90
18335;DHT22;9293;49.524;10.964;2022-07-21T00:35:09;24.10;99.90
18335;DHT22;9293;49.524;10.964;2022-07-21T00:37:37;24.10;99.90
18335;DHT22;9293;49.524;10.964;2022-07-21T00:40:06;24.00;99.90
18335;DHT22;9293;49.524;10.964;2022-07-21T00:42:35;23.90;99.90
18335;DHT22;9293;49.524;10.964;2022-07-21T00:45:10;24.00;99.90
18335;DHT22;9293;49.524;10.964;2022-07-21T00:47:41;24.00;99.90
18335;DHT22;9293;49.524;10.964;2022-07-21T00:50:12;23.90;99.90
18335;DHT22;9293;49.524;10.964;2022-07-21T00:52:40;23.70;99.90
18335;DHT22;9293;49.524;10.964;2022-07-21T00:55:10;23.70;99.90
18335;DHT22;9293;49.524;10.964;2022-07-21T00:57:39;23.60;99.90
18335;DHT22;9293;49.524;10.964;2022-07-21T01:00:08;23.60;99.90
18335;DHT22;9293;49.524;10.964;2022-07-21T01:02:37;23.60;99.90
18335;DHT22;9293;49.524;10.964;2022-07-21T01:05:05;23.60;99.90
18335;DHT22;9293;49.524;10.964;2022-07-21T01:07:34;23.40;99.90
18335;DHT22;9293;49.524;10.964;2022-07-21T01:10:02;23.40;99.90
18335;DHT22;9293;49.524;10.964;2022-07-21T01:12:30;23.40;99.90
18335;DHT22;9293;49.524;10.964;2022-07-21T01:14:58;23.40;99.90
18335;DHT22;9293;49.524;10.964;2022-07-21T01:17:26;23.40;99.90
18335;DHT22;9293;49.524;10.964;2022-07-21T01:20:02;23.30;99.90
18335;DHT22;9293;49.524;10.964;2022-07-21T01:22:31;23.30;99.90
18335;DHT22;9293;49.524;10.964;2022-07-21T01:24:59;23.20;99.90
18335;DHT22;9293;49.524;10.964;2022-07-21T01:27:26;23.20;99.90
18335;DHT22;9293;49.524;10.964;2022-07-21T01:29:55;23.10;99.90
18335;DHT22;9293;49.524;10.964;2022-07-21T01:32:23;23.00;99.90
18335;DHT22;9293;49.524;10.964;2022-07-21T01:34:51;22.80;99.90
18335;DHT22;9293;49.524;10.964;2022-07-21T01:37:20;22.40;99.90
18335;DHT22;9293;49.524;10.964;2022-07-21T01:39:49;22.40;99.90
18335;DHT22;9293;49.524;10.964;2022-07-21T01:42:37;22.40;99.90
18335;DHT22;9293;49.524;10.964;2022-07-21T01:45:06;22.40;99.90
18335;DHT22;9293;49.524;10.964;2022-07-21T01:47:34;22.30;99.90
18335;DHT22;9293;49.524;10.964;2022-07-21T01:50:02;22.20;99.90
18335;DHT22;9293;49.524;10.964;2022-07-21T01:52:31;22.10;99.90
18335;DHT22;9293;49.524;10.964;2022-07-21T01:55:05;22.00;99.90
18335;DHT22;9293;49.524;10.964;2022-07-21T01:57:33;22.10;99.90
18335;DHT22;9293;49.524;10.964;2022-07-21T02:00:02;22.00;99.90
18335;DHT22;9293;49.524;10.964;2022-07-21T02:02:32;21.90;99.90
18335;DHT22;9293;49.524;10.964;2022-07-21T02:05:00;21.80;99.90
18335;DHT22;9293;49.524;10.964;2022-07-21T02:07:28;21.60;99.90
18335;DHT22;9293;49.524;10.964;2022-07-21T02:09:55;21.50;99.90
18335;DHT22;9293;49.524;10.964;2022-07-21T02:12:23;21.60;99.90
18335;DHT22;9293;49.524;10.964;2022-07-21T02:14:51;21.70;99.90
18335;DHT22;9293;49.524;10.964;2022-07-21T02:17:19;21.70;99.90
18335;DHT22;9293;49.524;10.964;2022-07-21T02:19:47;21.60;99.90
18335;DHT22;9293;49.524;10.964;2022-07-21T02:22:15;21.40;99.90
18335;DHT22;9293;49.524;10.964;2022-07-21T02:24:43;21.30;99.90
18335;DHT22;9293;49.524;10.964;2022-07-21T02:27:11;21.30;99.90
18335;DHT22;9293;49.524;10.964;2022-07-21T02:29:39;21.20;99.90
18335;DHT22;9293;49.524;10.964;2022-07-21T02:32:07;21.20;99.90
18335;DHT22;9293;49.524;10.964;2022-07-21T02:34:35;21.20;99.90
18335;DHT22;9293;49.524;10.964;2022-07-21T02:37:03;21.20;99.90
18335;DHT22;9293;49.524;10.964;2022-07-21T02:39:31;21.20;99.90
18335;DHT22;9293;49.524;10.964;2022-07-21T02:41:59;21.10;99.90
18335;DHT22;9293;49.524;10.964;2022-07-21T02:44:27;20.90;99.90
18335;DHT22;9293;49.524;10.964;2022-07-21T02:46:57;21.00;99.90
18335;DHT22;9293;49.524;10.964;2022-07-21T02:49:25;20.90;99.90
18335;DHT22;9293;49.524;10.964;2022-07-21T02:51:53;20.90;99.90
18335;DHT22;9293;49.524;10.964;2022-07-21T02:54:21;20.90;99.90
18335;DHT22;9293;49.524;10.964;2022-07-21T02:56:49;21.00;99.90
18335;DHT22;9293;49.524;10.964;2022-07-21T02:59:17;21.00;99.90
18335;DHT22;9293;49.524;10.964;2022-07-21T03:01:45;21.00;99.90
18335;DHT22;9293;49.524;10.964;2022-07-21T03:04:13;21.10;99.90
18335;DHT22;9293;49.524;10.964;2022-07-21T03:06:41;21.00;99.90
18335;DHT22;9293;49.524;10.964;2022-07-21T03:09:10;20.90;99.90
18335;DHT22;9293;49.524;10.964;2022-07-21T03:11:38;20.90;99.90
18335;DHT22;9293;49.524;10.964;2022-07-21T03:14:05;20.90;99.90
18335;DHT22;9293;49.524;10.964;2022-07-21T03:16:37;20.80;99.90
18335;DHT22;9293;49.524;10.964;2022-07-21T03:19:05;20.80;99.90
18335;DHT22;9293;49.524;10.964;2022-07-21T03:21:38;20.70;99.90
18335;DHT22;9293;49.524;10.964;2022-07-21T03:24:06;20.70;99.90
18335;DHT22;9293;49.524;10.964;2022-07-21T03:26:34;20.80;99.90
18335;DHT22;9293;49.524;10.964;2022-07-21T03:29:07;20.80;99.90
18335;DHT22;9293;49.524;10.964;2022-07-21T03:31:35;20.70;99.90
18335;DHT22;9293;49.524;10.964;2022-07-21T03:34:03;20.70;99.90
18335;DHT22;9293;49.524;10.964;2022-07-21T03:36:31;20.90;99.90
18335;DHT22;9293;49.524;10.964;2022-07-21T03:38:59;21.00;99.90
18335;DHT22;9293;49.524;10.964;2022-07-21T03:41:27;21.10;99.90
18335;DHT22;9293;49.524;10.964;2022-07-21T03:44:08;21.10;99.90
18335;DHT22;9293;49.524;10.964;2022-07-21T03:46:36;21.10;99.90
18335;DHT22;9293;49.524;10.964;2022-07-21T03:49:05;21.10;99.90
18335;DHT22;9293;49.524;10.964;2022-07-21T03:51:33;21.00;99.90
18335;DHT22;9293;49.524;10.964;2022-07-21T03:54:00;21.10;99.90
18335;DHT22;9293;49.524;10.964;2022-07-21T03:56:29;21.00;99.90
18335;DHT22;9293;49.524;10.964;2022-07-21T03:58:57;21.10;99.90
18335;DHT22;9293;49.524;10.964;2022-07-21T04:01:25;21.20;99.90
18335;DHT22;9293;49.524;10.964;2022-07-21T04:03:54;21.20;99.90
18335;DHT22;9293;49.524;10.964;2022-07-21T04:06:22;21.10;99.90
18335;DHT22;9293;49.524;10.964;2022-07-21T04:08:50;21.20;99.90
18335;DHT22;9293;49.524;10.964;2022-07-21T04:11:19;21.10;99.90
18335;DHT22;9293;49.524;10.964;2022-07-21T04:13:47;21.00;99.90
18335;DHT22;9293;49.524;10.964;2022-07-21T04:16:14;20.90;99.90
18335;DHT22;9293;49.524;10.964;2022-07-21T04:19:03;20.90;99.90
18335;DHT22;9293;49.524;10.964;2022-07-21T04:21:31;20.80;99.90
18335;DHT22;9293;49.524;10.964;2022-07-21T04:23:59;20.80;99.90
18335;DHT22;9293;49.524;10.964;2022-07-21T04:26:36;20.90;99.90
18335;DHT22;9293;49.524;10.964;2022-07-21T04:29:04;21.00;99.90
18335;DHT22;9293;49.524;10.964;2022-07-21T04:31:35;21.10;99.90
18335;DHT22;9293;49.524;10.964;2022-07-21T04:34:02;21.20;99.90
18335;DHT22;9293;49.524;10.964;2022-07-21T04:36:30;21.20;99.90
18335;DHT22;9293;49.524;10.964;2022-07-21T04:38:58;21.20;99.90
18335;DHT22;9293;49.524;10.964;2022-07-21T04:41:26;21.20;99.90
18335;DHT22;9293;49.524;10.964;2022-07-21T04:43:54;21.30;99.90
18335;DHT22;9293;49.524;10.964;2022-07-21T04:46:22;21.30;99.90
18335;DHT22;9293;49.524;10.964;2022-07-21T04:48:50;21.30;99.90
18335;DHT22;9293;49.524;10.964;2022-07-21T04:51:18;21.30;99.90
18335;DHT22;9293;49.524;10.964;2022-07-21T04:53:46;21.30;99.90
18335;DHT22;9293;49.524;10.964;2022-07-21T04:56:14;21.30;99.90
18335;DHT22;9293;49.524;10.964;2022-07-21T04:58:42;21.30;99.90
18335;DHT22;9293;49.524;10.964;2022-07-21T05:01:10;21.30;99.90
18335;DHT22;9293;49.524;10.964;2022-07-21T05:03:38;21.20;99.90
18335;DHT22;9293;49.524;10.964;2022-07-21T05:06:06;21.20;99.90
18335;DHT22;9293;49.524;10.964;2022-07-21T05:08:34;21.20;99.90
18335;DHT22;9293;49.524;10.964;2022-07-21T05:11:03;21.20;99.90
18335;DHT22;9293;49.524;10.964;2022-07-21T05:13:31;21.10;99.90
18335;DHT22;9293;49.524;10.964;2022-07-21T05:15:59;21.10;99.90
18335;DHT22;9293;49.524;10.964;2022-07-21T05:18:27;21.10;99.90
18335;DHT22;9293;49.524;10.964;2022-07-21T05:20:58;21.10;99.90
18335;DHT22;9293;49.524;10.964;2022-07-21T05:23:33;21.10;99.90
18335;DHT22;9293;49.524;10.964;2022-07-21T05:26:01;21.10;99.90
18335;DHT22;9293;49.524;10.964;2022-07-21T05:28:29;21.10;99.90
18335;DHT22;9293;49.524;10.964;2022-07-21T05:30:58;21.10;99.90
18335;DHT22;9293;49.524;10.964;2022-07-21T05:33:26;21.10;99.90
18335;DHT22;9293;49.524;10.964;2022-07-21T05:35:54;21.10;99.90
18335;DHT22;9293;49.524;10.964;2022-07-21T05:38:22;21.10;99.90
18335;DHT22;9293;49.524;10.964;2022-07-21T05:40:53;21.10;99.90
18335;DHT22;9293;49.524;10.964;2022-07-21T05:43:21;21.10;99.90
18335;DHT22;9293;49.524;10.964;2022-07-21T05:45:49;20.90;99.90
18335;DHT22;9293;49.524;10.964;2022-07-21T05:48:24;20.90;99.90
18335;DHT22;9293;49.524;10.964;2022-07-21T05:50:52;20.90;99.90
18335;DHT22;9293;49.524;10.964;2022-07-21T05:53:20;21.00;99.90
18335;DHT22;9293;49.524;10.964;2022-07-21T05:55:49;21.10;99.90
18335;DHT22;9293;49.524;10.964;2022-07-21T05:58:17;21.10;99.90
18335;DHT22;9293;49.524;10.964;2022-07-21T06:00:48;21.20;99.90
18335;DHT22;9293;49.524;10.964;2022-07-21T06:03:36;21.20;99.90
18335;DHT22;9293;49.524;10.964;2022-07-21T06:06:04;21.30;99.90
18335;DHT22;9293;49.524;10.964;2022-07-21T06:08:32;21.20;99.90
18335;DHT22;9293;49.524;10.964;2022-07-21T06:11:00;21.30;99.90
18335;DHT22;9293;49.524;10.964;2022-07-21T06:13:28;21.40;99.90
18335;DHT22;9293;49.524;10.964;2022-07-21T06:15:56;21.40;99.90
18335;DHT22;9293;49.524;10.964;2022-07-21T06:18:24;21.50;99.90
18335;DHT22;9293;49.524;10.964;2022-07-21T06:20:52;21.60;99.90
18335;DHT22;9293;49.524;10.964;2022-07-21T06:23:20;21.70;99.90
18335;DHT22;9293;49.524;10.964;2022-07-21T06:25:47;21.80;99.90
18335;DHT22;9293;49.524;10.964;2022-07-21T06:28:15;21.90;99.90
18335;DHT22;9293;49.524;10.964;2022-07-21T06:30:43;21.80;99.90
18335;DHT22;9293;49.524;10.964;2022-07-21T06:33:11;21.60;99.90
18335;DHT22;9293;49.524;10.964;2022-07-21T06:35:39;21.70;99.90
18335;DHT22;9293;49.524;10.964;2022-07-21T06:38:07;21.90;99.90
18335;DHT22;9293;49.524;10.964;2022-07-21T06:40:39;21.90;99.90
18335;DHT22;9293;49.524;10.964;2022-07-21T06:43:09;22.00;99.90
18335;DHT22;9293;49.524;10.964;2022-07-21T06:45:55;22.10;99.90
18335;DHT22;9293;49.524;10.964;2022-07-21T06:48:24;22.20;99.90
18335;DHT22;9293;49.524;10.964;2022-07-21T06:50:53;22.20;99.90
18335;DHT22;9293;49.524;10.964;2022-07-21T06:53:21;22.00;99.90
18335;DHT22;9293;49.524;10.964;2022-07-21T06:55:50;22.00;99.90
18335;DHT22;9293;49.524;10.964;2022-07-21T06:58:30;22.00;99.90
18335;DHT22;9293;49.524;10.964;2022-07-21T07:01:05;22.00;99.90
18335;DHT22;9293;49.524;10.964;2022-07-21T07:03:34;22.00;99.90
18335;DHT22;9293;49.524;10.964;2022-07-21T07:06:03;22.00;99.90
18335;DHT22;9293;49.524;10.964;2022-07-21T07:08:31;22.10;99.90
18335;DHT22;9293;49.524;10.964;2022-07-21T07:10:59;22.00;99.90
18335;DHT22;9293;49.524;10.964;2022-07-21T07:13:27;22.00;99.90
18335;DHT22;9293;49.524;10.964;2022-07-21T07:16:15;22.10;99.90
18335;DHT22;9293;49.524;10.964;2022-07-21T07:18:43;22.30;99.90
18335;DHT22;9293;49.524;10.964;2022-07-21T07:21:11;22.30;99.90
18335;DHT22;9293;49.524;10.964;2022-07-21T07:23:39;22.30;99.90
18335;DHT22;9293;49.524;10.964;2022-07-21T07:26:07;22.30;99.90
18335;DHT22;9293;49.524;10.964;2022-07-21T07:28:35;22.30;99.90
18335;DHT22;9293;49.524;10.964;2022-07-21T07:31:03;22.30;99.90
18335;DHT22;9293;49.524;10.964;2022-07-21T07:33:31;22.40;99.90
18335;DHT22;9293;49.524;10.964;2022-07-21T07:35:58;22.40;99.90
18335;DHT22;9293;49.524;10.964;2022-07-21T07:38:26;22.40;99.90
18335;DHT22;9293;49.524;10.964;2022-07-21T07:40:54;22.50;99.90
18335;DHT22;9293;49.524;10.964;2022-07-21T07:43:22;22.50;99.90
18335;DHT22;9293;49.524;10.964;2022-07-21T07:45:50;22.70;99.90
18335;DHT22;9293;49.524;10.964;2022-07-21T07:48:18;22.70;99.90
18335;DHT22;9293;49.524;10.964;2022-07-21T07:50:46;22.80;99.90
18335;DHT22;9293;49.524;10.964;2022-07-21T07:53:14;22.90;99.90
18335;DHT22;9293;49.524;10.964;2022-07-21T07:55:42;23.00;99.90
18335;DHT22;9293;49.524;10.964;2022-07-21T07:58:10;23.20;99.90
18335;DHT22;9293;49.524;10.964;2022-07-21T08:00:38;23.40;99.90
18335;DHT22;9293;49.524;10.964;2022-07-21T08:03:24;23.40;99.90
18335;DHT22;9293;49.524;10.964;2022-07-21T08:05:56;23.60;99.90
18335;DHT22;9293;49.524;10.964;2022-07-21T08:08:31;23.70;99.90
18335;DHT22;9293;49.524;10.964;2022-07-21T08:10:59;23.80;99.90
18335;DHT22;9293;49.524;10.964;2022-07-21T08:13:27;23.90;99.90
18335;DHT22;9293;49.524;10.964;2022-07-21T08:15:55;23.80;99.90
18335;DHT22;9293;49.524;10.964;2022-07-21T08:18:23;24.00;99.90
18335;DHT22;9293;49.524;10.964;2022-07-21T08:20:53;24.20;99.90
18335;DHT22;9293;49.524;10.964;2022-07-21T08:23:25;24.20;99.90
18335;DHT22;9293;49.524;10.964;2022-07-21T08:25:56;24.40;99.90
18335;DHT22;9293;49.524;10.964;2022-07-21T08:28:30;24.40;99.90
18335;DHT22;9293;49.524;10.964;2022-07-21T08:31:02;24.60;99.90
18335;DHT22;9293;49.524;10.964;2022-07-21T08:33:30;24.90;99.90
18335;DHT22;9293;49.524;10.964;2022-07-21T08:35:59;24.90;99.90
18335;DHT22;9293;49.524;10.964;2022-07-21T08:38:33;24.90;99.90
18335;DHT22;9293;49.524;10.964;2022-07-21T08:41:02;25.00;99.90
18335;DHT22;9293;49.524;10.964;2022-07-21T08:43:43;25.20;99.90
18335;DHT22;9293;49.524;10.964;2022-07-21T08:46:12;25.20;99.90
18335;DHT22;9293;49.524;10.964;2022-07-21T08:48:42;25.30;99.90
18335;DHT22;9293;49.524;10.964;2022-07-21T08:51:14;25.50;99.90
18335;DHT22;9293;49.524;10.964;2022-07-21T08:53:47;25.60;99.90
18335;DHT22;9293;49.524;10.964;2022-07-21T08:56:16;25.80;99.90
18335;DHT22;9293;49.524;10.964;2022-07-21T08:58:44;26.20;99.90
18335;DHT22;9293;49.524;10.964;2022-07-21T09:01:12;26.50;99.90
18335;DHT22;9293;49.524;10.964;2022-07-21T09:03:41;26.60;99.90
18335;DHT22;9293;49.524;10.964;2022-07-21T09:06:09;26.10;99.90
18335;DHT22;9293;49.524;10.964;2022-07-21T09:08:40;25.70;99.90
18335;DHT22;9293;49.524;10.964;2022-07-21T09:13:39;25.50;99.90
18335;DHT22;9293;49.524;10.964;2022-07-21T09:16:08;25.60;99.90
18335;DHT22;9293;49.524;10.964;2022-07-21T09:18:46;25.70;99.90
18335;DHT22;9293;49.524;10.964;2022-07-21T09:21:15;25.80;99.90
18335;DHT22;9293;49.524;10.964;2022-07-21T09:23:43;25.90;99.90
18335;DHT22;9293;49.524;10.964;2022-07-21T09:26:11;26.10;99.90
18335;DHT22;9293;49.524;10.964;2022-07-21T09:28:39;26.20;99.90
18335;DHT22;9293;49.524;10.964;2022-07-21T09:31:08;26.40;99.90
18335;DHT22;9293;49.524;10.964;2022-07-21T09:36:12;26.70;99.90
18335;DHT22;9293;49.524;10.964;2022-07-21T09:38:50;26.90;99.90
18335;DHT22;9293;49.524;10.964;2022-07-21T09:41:20;27.10;99.90
18335;DHT22;9293;49.524;10.964;2022-07-21T09:43:54;27.20;99.90
18335;DHT22;9293;49.524;10.964;2022-07-21T09:46:28;27.70;99.90
18335;DHT22;9293;49.524;10.964;2022-07-21T09:48:58;27.60;99.90
18335;DHT22;9293;49.524;10.964;2022-07-21T09:51:46;28.00;99.90
18335;DHT22;9293;49.524;10.964;2022-07-21T09:54:14;28.40;99.90
18335;DHT22;9293;49.524;10.964;2022-07-21T09:56:43;28.40;99.90
18335;DHT22;9293;49.524;10.964;2022-07-21T09:59:12;28.60;99.90
18335;DHT22;9293;49.524;10.964;2022-07-21T10:01:40;28.60;99.90
18335;DHT22;9293;49.524;10.964;2022-07-21T10:04:08;28.50;99.90
18335;DHT22;9293;49.524;10.964;2022-07-21T10:06:37;28.30;99.90
18335;DHT22;9293;49.524;10.964;2022-07-21T10:09:07;28.30;99.90
18335;DHT22;9293;49.524;10.964;2022-07-21T10:11:38;28.40;99.90
18335;DHT22;9293;49.524;10.964;2022-07-21T10:14:08;29.00;99.90
18335;DHT22;9293;49.524;10.964;2022-07-21T10:16:37;29.20;99.90
18335;DHT22;9293;49.524;10.964;2022-07-21T10:19:32;29.30;99.90
18335;DHT22;9293;49.524;10.964;2022-07-21T10:22:04;28.60;99.90
18335;DHT22;9293;49.524;10.964;2022-07-21T10:24:35;28.40;99.90
18335;DHT22;9293;49.524;10.964;2022-07-21T10:27:12;28.30;99.90
18335;DHT22;9293;49.524;10.964;2022-07-21T10:32:27;28.00;99.90
18335;DHT22;9293;49.524;10.964;2022-07-21T10:34:55;27.60;99.90
18335;DHT22;9293;49.524;10.964;2022-07-21T10:37:45;27.60;99.90
18335;DHT22;9293;49.524;10.964;2022-07-21T10:45:30;27.80;99.90
18335;DHT22;9293;49.524;10.964;2022-07-21T10:47:58;28.40;99.90
18335;DHT22;9293;49.524;10.964;2022-07-21T10:53:04;28.40;99.90
18335;DHT22;9293;49.524;10.964;2022-07-21T10:55:35;28.60;99.90
18335;DHT22;9293;49.524;10.964;2022-07-21T11:00:34;29.30;99.90
18335;DHT22;9293;49.524;10.964;2022-07-21T11:03:12;29.50;99.60
18335;DHT22;9293;49.524;10.964;2022-07-21T11:11:34;29.30;99.90
18335;DHT22;9293;49.524;10.964;2022-07-21T11:14:13;29.30;99.90
18335;DHT22;9293;49.524;10.964;2022-07-21T11:22:18;27.80;99.90
18335;DHT22;9293;49.524;10.964;2022-07-21T11:24:48;28.10;99.90
18335;DHT22;9293;49.524;10.964;2022-07-21T11:27:20;28.50;99.90
18335;DHT22;9293;49.524;10.964;2022-07-21T11:29:50;28.80;99.90
18335;DHT22;9293;49.524;10.964;2022-07-21T11:32:18;29.10;99.80
18335;DHT22;9293;49.524;10.964;2022-07-21T11:37:18;29.20;97.30
18335;DHT22;9293;49.524;10.964;2022-07-21T11:42:44;28.10;98.10
18335;DHT22;9293;49.524;10.964;2022-07-21T11:45:15;28.00;98.30
18335;DHT22;9293;49.524;10.964;2022-07-21T11:47:43;27.90;99.20
18335;DHT22;9293;49.524;10.964;2022-07-21T11:50:17;28.00;98.90
18335;DHT22;9293;49.524;10.964;2022-07-21T11:52:45;28.20;98.70
18335;DHT22;9293;49.524;10.964;2022-07-21T11:55:13;28.50;98.90
18335;DHT22;9293;49.524;10.964;2022-07-21T11:57:42;29.00;98.00
18335;DHT22;9293;49.524;10.964;2022-07-21T12:00:10;29.50;97.70
18335;DHT22;9293;49.524;10.964;2022-07-21T12:02:39;29.90;96.40
18335;DHT22;9293;49.524;10.964;2022-07-21T12:05:07;30.00;96.50
18335;DHT22;9293;49.524;10.964;2022-07-21T12:07:42;30.50;96.30
18335;DHT22;9293;49.524;10.964;2022-07-21T12:10:12;31.00;96.10
18335;DHT22;9293;49.524;10.964;2022-07-21T12:12:42;31.00;95.50
18335;DHT22;9293;49.524;10.964;2022-07-21T12:15:29;31.10;95.40
18335;DHT22;9293;49.524;10.964;2022-07-21T12:20:30;31.20;94.40
18335;DHT22;9293;49.524;10.964;2022-07-21T12:23:42;31.10;93.90
18335;DHT22;9293;49.524;10.964;2022-07-21T12:25:49;31.20;94.60
18335;DHT22;9293;49.524;10.964;2022-07-21T12:31:10;31.30;94.50
18335;DHT22;9293;49.524;10.964;2022-07-21T12:33:38;30.80;93.30
18335;DHT22;9293;49.524;10.964;2022-07-21T12:36:26;30.20;93.60
18335;DHT22;9293;49.524;10.964;2022-07-21T12:38:54;29.70;94.70
18335;DHT22;9293;49.524;10.964;2022-07-21T12:41:43;29.80;95.00
18335;DHT22;9293;49.524;10.964;2022-07-21T12:44:11;29.60;94.50
18335;DHT22;9293;49.524;10.964;2022-07-21T12:46:41;29.80;94.90
18335;DHT22;9293;49.524;10.964;2022-07-21T12:49:11;30.20;94.30
18335;DHT22;9293;49.524;10.964;2022-07-21T12:51:40;30.20;93.30
18335;DHT22;9293;49.524;10.964;2022-07-21T12:54:09;30.10;93.90
18335;DHT22;9293;49.524;10.964;2022-07-21T12:56:37;30.10;93.60
18335;DHT22;9293;49.524;10.964;2022-07-21T12:59:05;30.00;93.50
18335;DHT22;9293;49.524;10.964;2022-07-21T13:01:33;30.20;92.90
18335;DHT22;9293;49.524;10.964;2022-07-21T13:04:02;30.10;93.00
18335;DHT22;9293;49.524;10.964;2022-07-21T13:06:31;30.00;93.60
18335;DHT22;9293;49.524;10.964;2022-07-21T13:08:59;30.20;94.40
18335;DHT22;9293;49.524;10.964;2022-07-21T13:11:27;30.50;92.80
18335;DHT22;9293;49.524;10.964;2022-07-21T13:13:55;30.60;92.70
18335;DHT22;9293;49.524;10.964;2022-07-21T13:16:25;30.40;92.40
18335;DHT22;9293;49.524;10.964;2022-07-21T13:18:53;30.50;92.20
18335;DHT22;9293;49.524;10.964;2022-07-21T13:21:21;30.30;91.90
18335;DHT22;9293;49.524;10.964;2022-07-21T13:23:49;30.10;91.90
18335;DHT22;9293;49.524;10.964;2022-07-21T13:26:17;30.20;92.70
18335;DHT22;9293;49.524;10.964;2022-07-21T13:28:45;30.60;92.20
18335;DHT22;9293;49.524;10.964;2022-07-21T13:31:14;31.00;91.40
18335;DHT22;9293;49.524;10.964;2022-07-21T13:33:42;31.30;90.10
18335;DHT22;9293;49.524;10.964;2022-07-21T13:36:10;31.30;89.20
18335;DHT22;9293;49.524;10.964;2022-07-21T13:38:41;31.30;88.70
18335;DHT22;9293;49.524;10.964;2022-07-21T13:41:09;31.20;89.20
18335;DHT22;9293;49.524;10.964;2022-07-21T13:43:57;31.20;86.90
18335;DHT22;9293;49.524;10.964;2022-07-21T13:46:26;31.50;85.80
18335;DHT22;9293;49.524;10.964;2022-07-21T13:48:58;31.50;84.70
18335;DHT22;9293;49.524;10.964;2022-07-21T13:51:26;31.30;84.50
18335;DHT22;9293;49.524;10.964;2022-07-21T13:53:54;31.40;84.70
18335;DHT22;9293;49.524;10.964;2022-07-21T13:56:22;31.70;85.20
18335;DHT22;9293;49.524;10.964;2022-07-21T13:58:50;31.60;83.10
18335;DHT22;9293;49.524;10.964;2022-07-21T14:01:18;31.10;83.10
18335;DHT22;9293;49.524;10.964;2022-07-21T14:03:47;30.90;84.70
18335;DHT22;9293;49.524;10.964;2022-07-21T14:06:15;30.90;86.70
18335;DHT22;9293;49.524;10.964;2022-07-21T14:08:44;31.00;86.10
18335;DHT22;9293;49.524;10.964;2022-07-21T14:11:12;31.20;85.50
18335;DHT22;9293;49.524;10.964;2022-07-21T14:13:41;30.90;86.40
18335;DHT22;9293;49.524;10.964;2022-07-21T14:16:10;30.60;86.90
18335;DHT22;9293;49.524;10.964;2022-07-21T14:18:38;30.10;87.30
18335;DHT22;9293;49.524;10.964;2022-07-21T14:21:06;30.10;86.60
18335;DHT22;9293;49.524;10.964;2022-07-21T14:23:34;30.40;88.20
18335;DHT22;9293;49.524;10.964;2022-07-21T14:26:02;30.70;84.70
18335;DHT22;9293;49.524;10.964;2022-07-21T14:28:30;30.90;85.20
18335;DHT22;9293;49.524;10.964;2022-07-21T14:30:58;30.80;84.90
18335;DHT22;9293;49.524;10.964;2022-07-21T14:33:27;30.70;85.10
18335;DHT22;9293;49.524;10.964;2022-07-21T14:35:57;30.70;85.70
18335;DHT22;9293;49.524;10.964;2022-07-21T14:38:25;30.90;85.30
18335;DHT22;9293;49.524;10.964;2022-07-21T14:40:53;31.20;84.30
18335;DHT22;9293;49.524;10.964;2022-07-21T14:43:21;31.30;85.00
18335;DHT22;9293;49.524;10.964;2022-07-21T14:45:50;31.20;85.00
18335;DHT22;9293;49.524;10.964;2022-07-21T14:48:18;31.30;84.40
18335;DHT22;9293;49.524;10.964;2022-07-21T14:50:50;31.50;82.60
18335;DHT22;9293;49.524;10.964;2022-07-21T14:53:18;31.40;81.80
18335;DHT22;9293;49.524;10.964;2022-07-21T14:55:46;31.20;82.50
18335;DHT22;9293;49.524;10.964;2022-07-21T14:58:14;31.20;83.30
18335;DHT22;9293;49.524;10.964;2022-07-21T15:00:42;31.40;84.10
18335;DHT22;9293;49.524;10.964;2022-07-21T15:03:10;31.70;84.20
18335;DHT22;9293;49.524;10.964;2022-07-21T15:05:38;31.60;80.80
18335;DHT22;9293;49.524;10.964;2022-07-21T15:08:06;31.60;80.80
18335;DHT22;9293;49.524;10.964;2022-07-21T15:10:39;31.40;81.70
18335;DHT22;9293;49.524;10.964;2022-07-21T15:13:07;31.20;81.30
18335;DHT22;9293;49.524;10.964;2022-07-21T15:15:35;31.20;81.30
18335;DHT22;9293;49.524;10.964;2022-07-21T15:18:04;31.20;81.10
18335;DHT22;9293;49.524;10.964;2022-07-21T15:20:32;31.30;81.40
18335;DHT22;9293;49.524;10.964;2022-07-21T15:23:00;31.30;80.90
18335;DHT22;9293;49.524;10.964;2022-07-21T15:25:28;31.10;80.90
18335;DHT22;9293;49.524;10.964;2022-07-21T15:27:56;31.00;80.20
18335;DHT22;9293;49.524;10.964;2022-07-21T15:30:24;30.70;80.50
18335;DHT22;9293;49.524;10.964;2022-07-21T15:32:52;30.70;81.00
18335;DHT22;9293;49.524;10.964;2022-07-21T15:35:20;30.70;79.50
18335;DHT22;9293;49.524;10.964;2022-07-21T15:37:48;30.50;79.40
18335;DHT22;9293;49.524;10.964;2022-07-21T15:40:16;30.10;79.20
18335;DHT22;9293;49.524;10.964;2022-07-21T15:42:44;30.20;79.00
18335;DHT22;9293;49.524;10.964;2022-07-21T15:45:15;30.30;78.00
18335;DHT22;9293;49.524;10.964;2022-07-21T15:47:46;30.50;78.40
18335;DHT22;9293;49.524;10.964;2022-07-21T15:50:14;30.60;77.40
18335;DHT22;9293;49.524;10.964;2022-07-21T15:52:42;30.60;77.60
18335;DHT22;9293;49.524;10.964;2022-07-21T15:55:10;30.70;77.50
18335;DHT22;9293;49.524;10.964;2022-07-21T15:57:39;30.80;76.80
18335;DHT22;9293;49.524;10.964;2022-07-21T16:00:08;30.80;77.00
18335;DHT22;9293;49.524;10.964;2022-07-21T16:02:40;30.80;77.70
18335;DHT22;9293;49.524;10.964;2022-07-21T16:05:09;30.80;76.80
18335;DHT22;9293;49.524;10.964;2022-07-21T16:07:38;30.80;76.50
18335;DHT22;9293;49.524;10.964;2022-07-21T16:10:08;30.60;76.80
18335;DHT22;9293;49.524;10.964;2022-07-21T16:12:36;30.60;77.30
18335;DHT22;9293;49.524;10.964;2022-07-21T16:15:05;30.60;76.90
18335;DHT22;9293;49.524;10.964;2022-07-21T16:17:33;30.40;77.90
18335;DHT22;9293;49.524;10.964;2022-07-21T16:20:02;30.20;77.20
18335;DHT22;9293;49.524;10.964;2022-07-21T16:22:37;29.90;76.90
18335;DHT22;9293;49.524;10.964;2022-07-21T16:25:07;29.80;78.40